createdAt,value
2023-04-17T00:01:19.742Z,11.63
2023-04-17T00:04:11.258Z,11.73
2023-04-17T00:07:03.563Z,11.55
2023-04-17T00:09:52.416Z,11.85
2023-04-17T00:12:42.625Z,10.27
2023-04-17T00:15:31.693Z,12.25
2023-04-17T00:18:20.480Z,12.00
2023-04-17T00:21:09.306Z,11.23
2023-04-17T00:23:58.171Z,11.45
2023-04-17T00:26:46.853Z,11.35
2023-04-17T00:29:37.521Z,11.15
2023-04-17T00:32:26.416Z,11.38
2023-04-17T00:35:15.889Z,11.93
2023-04-17T00:38:04.625Z,10.82
2023-04-17T00:40:53.589Z,11.25
2023-04-17T00:43:42.472Z,11.27
2023-04-17T00:46:33.767Z,11.57
2023-04-17T00:49:23.576Z,10.65
2023-04-17T00:52:13.153Z,11.45
2023-04-17T00:55:02.884Z,11.13
2023-04-17T00:57:55.019Z,11.23
2023-04-17T01:00:43.783Z,10.63
2023-04-17T01:08:13.319Z,12.32
2023-04-17T01:11:02.089Z,10.93
2023-04-17T01:13:51.895Z,11.23
2023-04-17T01:16:40.685Z,10.75
2023-04-17T01:19:31.441Z,11.68
2023-04-17T01:22:21.044Z,11.40
2023-04-17T01:25:14.214Z,11.10
2023-04-17T01:28:02.971Z,11.10
2023-04-17T01:30:52.123Z,10.75
2023-04-17T01:33:41.108Z,11.48
2023-04-17T01:36:29.882Z,10.82
2023-04-17T01:39:19.032Z,11.80
2023-04-17T01:42:09.214Z,11.95
2023-04-17T01:44:58.007Z,11.40
2023-04-17T01:47:47.389Z,10.77
2023-04-17T01:50:36.301Z,10.85
2023-04-17T01:53:25.101Z,10.63
2023-04-17T01:56:14.207Z,10.20
2023-04-17T01:59:05.267Z,11.07
2023-04-17T02:01:54.625Z,11.18
2023-04-17T02:04:43.564Z,11.20
2023-04-17T02:07:32.596Z,10.65
2023-04-17T02:10:21.608Z,10.85
2023-04-17T02:13:10.781Z,11.32
2023-04-17T02:16:04.714Z,11.10
2023-04-17T02:18:54.151Z,11.68
2023-04-17T02:21:42.909Z,11.80
2023-04-17T02:24:32.075Z,10.98
2023-04-17T02:27:22.375Z,11.20
2023-04-17T02:30:12.630Z,11.43
2023-04-17T02:33:03.160Z,10.50
2023-04-17T02:35:53.004Z,10.88
2023-04-17T02:38:46.904Z,11.25
2023-04-17T02:41:36.066Z,10.80
2023-04-17T02:44:26.422Z,11.38
2023-04-17T02:47:16.942Z,10.68
2023-04-17T02:50:09.264Z,11.40
2023-04-17T02:53:06.216Z,10.88
2023-04-17T02:55:55.112Z,10.95
2023-04-17T02:58:51.006Z,11.25
2023-04-17T03:01:40.509Z,10.43
2023-04-17T03:04:29.334Z,10.85
2023-04-17T03:07:20.810Z,10.95
2023-04-17T03:10:10.527Z,11.93
2023-04-17T03:12:59.077Z,10.65
2023-04-17T03:15:47.835Z,12.13
2023-04-17T03:18:40.233Z,11.65
2023-04-17T03:21:29.415Z,12.50
2023-04-17T03:24:19.568Z,12.55
2023-04-17T03:27:08.328Z,11.80
2023-04-17T03:30:00.641Z,11.70
2023-04-17T03:32:49.651Z,11.70
2023-04-17T03:35:38.779Z,12.68
2023-04-17T03:38:29.876Z,12.32
2023-04-17T03:41:21.079Z,11.93
2023-04-17T03:44:10.778Z,12.15
2023-04-17T03:46:59.476Z,12.25
2023-04-17T03:49:48.527Z,11.35
2023-04-17T03:52:38.276Z,12.43
2023-04-17T03:55:27.777Z,11.63
2023-04-17T03:58:18.013Z,11.20
2023-04-17T04:01:10.522Z,11.48
2023-04-17T04:04:03.813Z,10.63
2023-04-17T04:06:54.522Z,11.07
2023-04-17T04:09:43.554Z,10.82
2023-04-17T04:12:32.490Z,11.05
2023-04-17T04:15:48.637Z,12.30
2023-04-17T04:18:40.665Z,11.52
2023-04-17T04:21:30.751Z,11.98
2023-04-17T04:24:21.619Z,11.85
2023-04-17T04:27:35.025Z,13.20
2023-04-17T04:30:35.880Z,11.95
2023-04-17T04:33:35.210Z,11.55
2023-04-17T04:36:25.219Z,12.05
2023-04-17T04:39:26.484Z,12.30
2023-04-17T04:42:21.905Z,10.77
2023-04-17T04:45:34.106Z,11.05
2023-04-17T04:48:43.058Z,11.15
2023-04-17T04:51:35.729Z,10.50
2023-04-17T04:54:28.129Z,11.10
2023-04-17T04:57:20.487Z,12.70
2023-04-17T05:00:14.321Z,10.90
2023-04-17T05:03:14.120Z,11.98
2023-04-17T05:06:05.996Z,12.45
2023-04-17T05:09:05.804Z,12.88
2023-04-17T05:11:54.804Z,12.52
2023-04-17T05:14:44.288Z,12.45
2023-04-17T05:17:33.595Z,12.15
2023-04-17T05:20:23.625Z,12.85
2023-04-17T05:23:21.278Z,13.68
2023-04-17T05:26:12.114Z,13.50
2023-04-17T05:29:02.775Z,12.55
2023-04-17T05:31:59.039Z,13.82
2023-04-17T05:35:14.654Z,12.88
2023-04-17T05:38:08.256Z,13.15
2023-04-17T05:40:59.841Z,12.82
2023-04-17T05:43:49.338Z,13.15
2023-04-17T05:46:38.977Z,15.05
2023-04-17T05:49:28.296Z,14.88
2023-04-17T05:52:17.207Z,14.55
2023-04-17T05:55:17.266Z,13.43
2023-04-17T05:58:20.452Z,14.73
2023-04-17T06:01:18.573Z,14.77
2023-04-17T06:04:08.349Z,15.10
2023-04-17T06:06:57.403Z,15.95
2023-04-17T06:09:48.300Z,15.93
2023-04-17T06:12:38.323Z,16.30
2023-04-17T06:15:32.411Z,16.25
2023-04-17T06:18:21.775Z,15.40
2023-04-17T06:21:10.878Z,15.63
2023-04-17T06:24:01.319Z,17.25
2023-04-17T06:26:52.035Z,15.20
2023-04-17T06:29:42.850Z,16.52
2023-04-17T06:32:36.813Z,16.40
2023-04-17T06:35:28.925Z,15.90
2023-04-17T06:38:30.633Z,14.93
2023-04-17T06:41:19.730Z,16.35
2023-04-17T06:44:08.541Z,15.75
2023-04-17T06:47:08.304Z,16.83
2023-04-17T06:50:01.855Z,15.93
2023-04-17T06:52:51.180Z,15.95
2023-04-17T06:55:40.419Z,15.48
2023-04-17T06:58:29.706Z,15.27
2023-04-17T07:01:20.003Z,16.67
2023-04-17T07:04:10.245Z,15.05
2023-04-17T07:07:03.059Z,16.05
2023-04-17T07:09:52.306Z,15.15
2023-04-17T07:12:41.962Z,14.48
2023-04-17T07:15:35.912Z,17.95
2023-04-17T07:18:29.758Z,14.55
2023-04-17T07:21:21.856Z,16.17
2023-04-17T07:24:13.866Z,16.10
2023-04-17T07:27:11.024Z,15.77
2023-04-17T07:30:09.350Z,15.90
2023-04-17T07:33:00.156Z,16.15
2023-04-17T07:35:50.718Z,14.60
2023-04-17T07:38:45.122Z,14.32
2023-04-17T07:41:43.878Z,14.43
2023-04-17T07:44:42.581Z,14.00
2023-04-17T07:47:35.197Z,14.27
2023-04-17T07:50:37.273Z,13.73
2023-04-17T07:53:36.086Z,13.30
2023-04-17T07:56:29.629Z,14.07
2023-04-17T07:59:33.386Z,12.88
2023-04-17T08:02:33.920Z,12.48
2023-04-17T08:05:39.331Z,12.43
2023-04-17T08:09:00.550Z,12.40
2023-04-17T08:20:23.485Z,10.43
2023-04-17T08:31:43.134Z,10.88
2023-04-17T08:54:06.408Z,10.48
2023-04-17T08:57:30.831Z,10.77
2023-04-17T09:18:49.435Z,9.75
2023-04-17T09:21:37.914Z,10.55
2023-04-17T09:24:37.574Z,9.82
2023-04-17T09:27:27.863Z,9.13
2023-04-17T09:30:16.638Z,9.82
2023-04-17T09:33:07.397Z,8.43
2023-04-17T09:35:57.180Z,7.93
2023-04-17T09:38:45.718Z,8.77
2023-04-17T09:41:38.974Z,7.50
2023-04-17T09:44:30.073Z,8.10
2023-04-17T09:47:19.806Z,7.90
2023-04-17T09:50:10.021Z,9.13
2023-04-17T09:52:59.893Z,7.90
2023-04-17T09:55:49.249Z,8.80
2023-04-17T09:58:39.345Z,8.40
2023-04-17T10:01:28.868Z,7.90
2023-04-17T10:04:18.341Z,6.72
2023-04-17T10:07:07.186Z,6.45
2023-04-17T10:09:57.092Z,7.10
2023-04-17T10:12:49.758Z,6.25
2023-04-17T10:15:38.563Z,4.95
2023-04-17T10:18:27.869Z,5.57
2023-04-17T10:21:25.823Z,5.38
2023-04-17T10:24:26.965Z,6.15
2023-04-17T10:27:53.446Z,5.80
2023-04-17T10:30:53.932Z,5.45
2023-04-17T10:33:50.677Z,5.28
2023-04-17T10:36:52.297Z,5.35
2023-04-17T10:39:59.966Z,4.78
2023-04-17T10:43:08.330Z,4.95
2023-04-17T10:46:03.048Z,5.20
2023-04-17T10:48:54.604Z,5.63
2023-04-17T10:51:44.782Z,5.50
2023-04-17T10:54:34.169Z,5.85
2023-04-17T10:57:59.448Z,5.80
2023-04-17T11:00:53.133Z,6.18
2023-04-17T11:03:43.445Z,5.97
2023-04-17T11:06:37.474Z,6.03
2023-04-17T11:09:29.282Z,6.95
2023-04-17T11:12:19.755Z,5.40
2023-04-17T11:15:10.943Z,5.43
2023-04-17T11:18:01.328Z,5.70
2023-04-17T11:20:51.641Z,6.28
2023-04-17T11:23:40.539Z,5.63
2023-04-17T11:26:29.251Z,5.63
2023-04-17T11:29:19.073Z,5.10
2023-04-17T11:32:13.087Z,5.18
2023-04-17T11:35:01.618Z,5.13
2023-04-17T11:38:08.904Z,6.13
2023-04-17T11:40:59.885Z,5.80
2023-04-17T11:43:48.287Z,5.68
2023-04-17T11:46:37.272Z,5.55
2023-04-17T11:49:27.994Z,5.90
2023-04-17T11:52:18.054Z,5.60
2023-04-17T11:55:10.654Z,6.25
2023-04-17T11:58:01.334Z,5.25
2023-04-17T12:01:06.733Z,5.90
2023-04-17T12:03:57.150Z,6.28
2023-04-17T12:06:47.060Z,5.45
2023-04-17T12:09:36.968Z,5.82
2023-04-17T12:12:25.450Z,5.78
2023-04-17T12:15:13.976Z,5.22
2023-04-17T12:18:05.559Z,5.50
2023-04-17T12:20:54.108Z,5.28
2023-04-17T12:23:43.945Z,6.00
2023-04-17T12:26:32.499Z,5.80
2023-04-17T12:29:29.430Z,6.45
2023-04-17T12:32:29.658Z,6.47
2023-04-17T12:35:18.851Z,5.63
2023-04-17T12:38:07.653Z,6.50
2023-04-17T12:40:57.494Z,6.07
2023-04-17T12:43:45.951Z,5.70
2023-04-17T12:46:34.514Z,5.90
2023-04-17T12:49:23.691Z,6.43
2023-04-17T12:52:12.501Z,5.82
2023-04-17T12:55:01.226Z,6.07
2023-04-17T12:57:51.056Z,6.40
2023-04-17T13:00:41.014Z,5.60
2023-04-17T13:03:29.763Z,6.00
2023-04-17T13:06:18.466Z,5.72
2023-04-17T13:09:07.299Z,5.57
2023-04-17T13:11:55.745Z,5.88
2023-04-17T13:14:45.606Z,5.50
2023-04-17T13:17:34.168Z,5.75
2023-04-17T13:20:22.946Z,5.15
2023-04-17T13:23:11.811Z,5.20
2023-04-17T13:26:00.506Z,5.68
2023-04-17T13:28:48.927Z,6.05
2023-04-17T13:31:38.971Z,5.45
2023-04-17T13:34:27.597Z,5.70
2023-04-17T13:37:16.268Z,5.70
2023-04-17T13:40:05.584Z,5.53
2023-04-17T13:42:54.570Z,6.13
2023-04-17T13:45:43.520Z,4.88
2023-04-17T13:48:33.399Z,5.75
2023-04-17T13:51:22.248Z,5.75
2023-04-17T13:54:11.932Z,5.82
2023-04-17T13:57:01.178Z,5.75
2023-04-17T13:59:49.813Z,5.57
2023-04-17T14:02:38.426Z,5.75
2023-04-17T14:05:28.535Z,5.85
2023-04-17T14:08:17.081Z,6.13
2023-04-17T14:11:05.646Z,5.43
2023-04-17T14:13:54.274Z,5.10
2023-04-17T14:16:43.322Z,5.53
2023-04-17T14:19:31.944Z,5.18
2023-04-17T14:22:36.576Z,5.55
2023-04-17T14:25:25.094Z,5.63
2023-04-17T14:28:13.977Z,5.70
2023-04-17T14:31:27.946Z,6.25
2023-04-17T14:34:16.883Z,5.97
2023-04-17T14:37:05.664Z,6.05
2023-04-17T14:39:55.875Z,6.65
2023-04-17T14:42:54.599Z,5.38
2023-04-17T14:45:53.430Z,5.90
2023-04-17T14:48:54.876Z,5.70
2023-04-17T14:51:44.267Z,6.00
2023-04-17T14:54:33.489Z,6.00
2023-04-17T14:57:24.903Z,6.43
2023-04-17T15:00:15.270Z,5.30
2023-04-17T15:03:04.522Z,5.07
2023-04-17T15:06:03.559Z,6.40
2023-04-17T15:08:52.353Z,6.28
2023-04-17T15:11:41.195Z,5.50
2023-04-17T15:14:43.054Z,5.75
2023-04-17T15:17:31.896Z,9.18
2023-04-17T15:20:24.971Z,6.00
2023-04-17T15:23:13.672Z,5.18
2023-04-17T15:26:03.004Z,6.30
2023-04-17T15:28:51.576Z,5.55
2023-04-17T15:31:41.926Z,5.75
2023-04-17T15:34:31.099Z,5.07
2023-04-17T15:37:19.894Z,5.38
2023-04-17T15:40:10.307Z,5.47
2023-04-17T15:43:00.490Z,5.97
2023-04-17T15:45:50.614Z,5.90
2023-04-17T15:48:40.972Z,6.38
2023-04-17T15:51:29.678Z,5.97
2023-04-17T15:54:18.437Z,6.93
2023-04-17T15:57:07.303Z,6.72
2023-04-17T15:59:55.928Z,6.60
2023-04-17T16:02:57.356Z,6.40
2023-04-17T16:05:47.533Z,7.03
2023-04-17T16:08:38.671Z,6.65
2023-04-17T16:11:35.856Z,6.50
2023-04-17T16:14:24.616Z,6.60
2023-04-17T16:17:16.489Z,6.60
2023-04-17T16:20:31.225Z,6.95
2023-04-17T16:51:57.355Z,5.85
2023-04-17T17:13:54.978Z,5.28
2023-04-17T17:35:06.665Z,5.30
2023-04-17T17:44:27.804Z,5.43
2023-04-17T18:24:44.749Z,7.03
2023-04-17T18:32:27.797Z,6.43
2023-04-17T18:35:16.501Z,6.65
2023-04-17T18:38:06.453Z,5.53
2023-04-17T18:40:55.552Z,6.38
2023-04-17T18:43:44.025Z,6.60
2023-04-17T18:46:38.519Z,6.35
2023-04-17T18:49:28.376Z,5.82
2023-04-17T18:52:16.819Z,6.43
2023-04-17T18:55:11.666Z,6.25
2023-04-17T18:58:00.583Z,6.53
2023-04-17T19:01:05.505Z,6.53
2023-04-17T19:03:57.147Z,6.85
2023-04-17T19:06:48.982Z,6.45
2023-04-17T19:09:39.599Z,6.50
2023-04-17T19:12:36.302Z,6.57
2023-04-17T19:15:26.788Z,6.53
2023-04-17T19:18:59.119Z,6.53
2023-04-17T19:21:47.663Z,7.00
2023-04-17T19:24:39.666Z,6.22
2023-04-17T19:27:42.127Z,6.50
2023-04-17T19:30:49.845Z,6.78
2023-04-17T19:33:41.382Z,6.25
2023-04-17T19:36:44.293Z,6.85
2023-04-17T19:39:44.703Z,6.90
2023-04-17T19:42:42.921Z,6.15
2023-04-17T19:45:42.285Z,6.43
2023-04-17T19:48:36.026Z,6.80
2023-04-17T19:51:27.712Z,5.90
2023-04-17T19:54:16.375Z,6.00
2023-04-17T19:57:05.201Z,6.05
2023-04-17T19:59:55.395Z,6.55
2023-04-17T20:02:46.414Z,5.25
2023-04-17T20:05:35.653Z,5.80
2023-04-17T20:08:24.866Z,6.05
2023-04-17T20:11:13.836Z,5.53
2023-04-17T20:14:04.981Z,5.68
2023-04-17T20:16:55.537Z,5.40
2023-04-17T20:19:44.277Z,5.18
2023-04-17T20:22:34.873Z,5.80
2023-04-17T20:25:23.882Z,5.53
2023-04-17T20:28:24.621Z,6.32
2023-04-17T20:31:22.547Z,5.72
2023-04-17T20:34:21.352Z,5.70
2023-04-17T20:37:10.140Z,5.53
2023-04-17T20:39:59.044Z,6.15
2023-04-17T20:42:48.347Z,5.68
2023-04-17T20:45:37.318Z,5.47
2023-04-17T20:48:26.514Z,5.38
2023-04-17T20:51:19.297Z,5.75
2023-04-17T20:54:08.392Z,4.85
2023-04-17T20:56:57.420Z,5.57
2023-04-17T20:59:46.339Z,5.03
2023-04-17T21:02:37.104Z,5.90
2023-04-17T21:05:26.126Z,5.93
2023-04-17T21:08:15.908Z,5.97
2023-04-17T21:11:04.827Z,5.70
2023-04-17T21:13:53.333Z,5.70
2023-04-17T21:16:50.942Z,5.07
2023-04-17T21:19:39.592Z,5.28
2023-04-17T21:22:28.180Z,5.40
2023-04-17T21:25:18.508Z,5.57
2023-04-17T21:28:07.354Z,4.57
2023-04-17T21:31:08.490Z,4.80
2023-04-17T21:34:00.631Z,4.57
2023-04-17T21:37:04.147Z,4.95
2023-04-17T21:39:57.523Z,5.32
2023-04-17T21:42:52.165Z,4.55
2023-04-17T21:45:44.135Z,4.90
2023-04-17T21:48:36.991Z,4.53
2023-04-17T21:51:25.731Z,4.78
2023-04-17T21:54:18.252Z,5.10
2023-04-17T21:57:08.953Z,4.95
2023-04-17T21:59:58.919Z,4.90
2023-04-17T22:02:55.994Z,4.93
2023-04-17T22:05:50.617Z,5.10
2023-04-17T22:08:39.435Z,5.18
2023-04-17T22:11:28.200Z,4.32
2023-04-17T22:14:17.517Z,4.97
2023-04-17T22:17:08.083Z,5.00
2023-04-17T22:19:57.115Z,4.85
2023-04-17T22:22:48.359Z,4.88
2023-04-17T22:25:37.219Z,4.95
2023-04-17T22:28:26.217Z,4.90
2023-04-17T22:31:15.908Z,4.55
2023-04-17T22:34:06.244Z,5.20
2023-04-17T22:36:54.979Z,4.70
2023-04-17T22:39:43.843Z,4.53
2023-04-17T22:42:32.724Z,4.28
2023-04-17T22:45:23.082Z,5.03
2023-04-17T22:48:11.763Z,4.32
2023-04-17T22:51:02.398Z,4.85
2023-04-17T22:53:50.968Z,4.55
2023-04-17T22:56:39.503Z,4.93
2023-04-17T22:59:27.955Z,4.82
2023-04-17T23:02:16.637Z,4.35
2023-04-17T23:05:06.018Z,4.55
2023-04-17T23:07:55.768Z,5.30
2023-04-17T23:10:44.456Z,4.75
2023-04-17T23:13:33.092Z,4.45
2023-04-17T23:16:21.541Z,4.57
2023-04-17T23:19:09.904Z,4.13
2023-04-17T23:21:59.468Z,4.10
2023-04-17T23:24:49.478Z,4.70
2023-04-17T23:27:37.880Z,4.07
2023-04-17T23:30:26.228Z,4.15
2023-04-17T23:33:14.653Z,4.35
2023-04-17T23:36:03.243Z,3.85
2023-04-17T23:38:51.609Z,4.60
2023-04-17T23:41:42.725Z,4.07
2023-04-17T23:44:31.114Z,4.20
2023-04-17T23:47:19.450Z,3.80
2023-04-17T23:50:09.202Z,3.45
2023-04-17T23:52:57.506Z,3.45
2023-04-17T23:55:46.112Z,3.35
2023-04-17T23:58:35.811Z,3.55
